Time;durP1;ratioP1;P1;durP2;ratioP2;P2;SDS_P1;SDS_P2;PMS_P1;PMS_P2;Temp;Humidity;BMP_temperature;BMP_pressure;BME280_temperature;BME280_humidity;BME280_pressure;Samples;Min_cycle;Max_cycle;Signal;HPM_P1;HPM_P2
2021/08/11 00:01:10;;;;;;;12.53;9.17;;;;;;;25.40;62.48;99666.91;3376651;29;20424;-71
2021/08/11 00:02:51;;;;;;;13.53;8.40;;;;;;;25.41;62.57;99669.34;3376832;29;20049;-71
2021/08/11 00:04:32;;;;;;;17.20;8.90;;;;;;;25.40;62.52;99672.34;3377079;29;20548;-70
2021/08/11 00:06:12;;;;;;;9.70;7.47;;;;;;;25.40;62.30;99666.91;3376756;29;20075;-71
2021/08/11 00:07:53;;;;;;;9.43;8.30;;;;;;;25.41;62.26;99671.28;3376451;29;20401;-71
2021/08/11 00:09:34;;;;;;;22.27;9.70;;;;;;;25.40;62.02;99658.72;3376172;29;20475;-70
2021/08/11 00:11:14;;;;;;;11.67;9.40;;;;;;;25.33;61.99;99652.84;3376301;29;20055;-71
2021/08/11 00:12:56;;;;;;;10.55;8.60;;;;;;;25.28;62.59;99652.91;3376814;29;20444;-71
2021/08/11 00:14:37;;;;;;;15.53;10.07;;;;;;;25.26;62.85;99655.09;3377096;29;20048;-71
2021/08/11 00:16:18;;;;;;;14.47;9.20;;;;;;;25.21;62.78;99653.25;3376931;29;20457;-70
2021/08/11 00:17:58;;;;;;;15.90;9.20;;;;;;;25.18;62.85;99659.28;3376673;29;20049;-71
2021/08/11 00:19:39;;;;;;;17.47;9.37;;;;;;;25.18;63.35;99651.91;3375288;29;20092;-69
2021/08/11 00:21:20;;;;;;;16.23;9.27;;;;;;;25.17;63.43;99650.31;3375804;29;20052;-70
2021/08/11 00:23:02;;;;;;;16.00;9.45;;;;;;;25.18;63.05;99648.38;3375769;29;20041;-71
2021/08/11 00:24:43;;;;;;;11.88;8.75;;;;;;;25.16;62.84;99656.84;3376553;29;20053;-70
2021/08/11 00:26:23;;;;;;;14.90;9.40;;;;;;;25.20;63.32;99662.53;3377145;29;20051;-70
2021/08/11 00:28:04;;;;;;;13.23;8.53;;;;;;;25.19;62.93;99645.34;3376750;29;20567;-71
2021/08/11 00:29:45;;;;;;;15.50;8.73;;;;;;;25.19;63.42;99648.06;3378616;29;20067;-71
2021/08/11 00:31:26;;;;;;;15.23;8.63;;;;;;;25.21;63.78;99651.31;3377859;29;20044;-73
2021/08/11 00:33:06;;;;;;;9.17;8.13;;;;;;;25.27;63.18;99654.00;3379424;29;20444;-70
2021/08/11 00:34:48;;;;;;;10.27;8.00;;;;;;;25.28;63.10;99652.91;3378513;29;20567;-71
2021/08/11 00:36:29;;;;;;;12.47;9.13;;;;;;;25.29;63.29;99654.50;3362826;29;20065;-69
2021/08/11 00:38:10;;;;;;;14.87;7.70;;;;;;;25.27;62.99;99648.53;3372995;29;20056;-71
2021/08/11 00:39:51;;;;;;;12.68;8.45;;;;;;;25.27;63.31;99654.00;3375794;29;20128;-71
2021/08/11 00:41:32;;;;;;;18.47;9.30;;;;;;;25.24;63.36;99645.28;3375576;29;20048;-71
2021/08/11 00:43:13;;;;;;;10.88;7.90;;;;;;;25.20;63.41;99646.97;3364900;29;20045;-72
2021/08/11 00:45:03;;;;;;;11.52;8.38;;;;;;;25.22;63.66;99643.94;3373477;29;20515;-70
2021/08/11 00:46:45;;;;;;;10.63;8.27;;;;;;;25.23;63.57;99640.94;3378753;29;20148;-71
2021/08/11 00:48:27;;;;;;;14.70;8.98;;;;;;;25.26;63.63;99645.00;3377811;29;20048;-71
2021/08/11 00:50:09;;;;;;;12.75;8.02;;;;;;;25.26;63.25;99645.00;3375515;29;20051;-71
2021/08/11 00:51:52;;;;;;;9.73;8.73;;;;;;;25.23;63.32;99634.69;3375745;29;20048;-71
2021/08/11 00:53:33;;;;;;;11.10;8.40;;;;;;;25.28;63.60;99641.97;3375692;29;20507;-70
2021/08/11 00:55:15;;;;;;;10.55;8.20;;;;;;;25.29;63.63;99632.69;3362010;29;20045;-70
2021/08/11 00:56:57;;;;;;;12.07;9.13;;;;;;;25.30;62.85;99634.28;3375675;29;20508;-72
2021/08/11 00:58:38;;;;;;;;;;;;;;;25.35;62.75;99639.69;3378299;29;20428;-70
2021/08/11 01:00:21;;;;;;;16.73;9.27;;;;;;;25.26;62.74;99638.72;3359692;29;19919;-71
2021/08/11 01:02:03;;;;;;;13.45;9.48;;;;;;;25.16;62.82;99632.28;3375781;29;20052;-73
2021/08/11 01:03:44;;;;;;;10.48;8.13;;;;;;;25.13;63.38;99638.31;3365000;29;20057;-71
2021/08/11 01:05:25;;;;;;;13.75;8.00;;;;;;;25.14;63.82;99639.13;3372766;29;20083;-71
2021/08/11 01:07:06;;;;;;;10.40;8.30;;;;;;;25.15;63.81;99636.09;3378260;29;20040;-70
2021/08/11 01:08:47;;;;;;;14.03;8.70;;;;;;;25.14;63.39;99637.19;3377832;29;20037;-71
2021/08/11 01:10:29;;;;;;;;;;;;;;;25.19;63.50;99623.53;3375879;29;20457;-70
2021/08/11 01:12:10;;;;;;;10.65;8.60;;;;;;;25.15;63.84;99630.66;3375161;29;19919;-71
2021/08/11 01:13:51;;;;;;;13.48;8.52;;;;;;;25.16;63.95;99629.56;3378011;29;20457;-70
2021/08/11 01:15:33;;;;;;;9.95;8.07;;;;;;;25.20;63.91;99627.09;3375499;29;20149;-68
2021/08/11 01:17:14;;;;;;;13.75;8.13;;;;;;;25.18;63.66;99632.81;3375166;29;20054;-70
2021/08/11 01:18:54;;;;;;;11.17;8.50;;;;;;;25.14;63.94;99626.28;3378018;29;20604;-72
2021/08/11 01:20:36;;;;;;;14.07;8.90;;;;;;;25.12;64.02;99625.78;3377665;29;20053;-72
2021/08/11 01:22:43;;;;;;;12.90;8.65;;;;;;;25.14;63.63;99631.75;3375337;29;20040;-71
2021/08/11 01:24:39;;;;;;;9.65;8.05;;;;;;;25.11;63.83;99631.53;3377583;29;20044;-71
2021/08/11 01:26:32;;;;;;;9.95;8.32;;;;;;;25.08;63.91;99640.28;3364045;29;20049;-71
2021/08/11 01:28:46;;;;;;;11.10;8.20;;;;;;;25.02;63.70;99634.09;3375353;29;20064;-70
2021/08/11 01:30:47;;;;;;;13.48;9.00;;;;;;;24.96;64.07;99633.34;3364580;29;20052;-71
2021/08/11 01:32:49;;;;;;;11.55;8.57;;;;;;;24.90;64.12;99637.22;3364732;29;20041;-71
2021/08/11 01:34:42;;;;;;;13.57;8.48;;;;;;;24.87;63.85;99634.28;3377694;29;20055;-72
2021/08/11 01:36:42;;;;;;;10.77;8.07;;;;;;;24.83;63.55;99635.94;3363347;29;20154;-72
2021/08/11 01:38:26;;;;;;;8.10;7.30;;;;;;;24.81;64.40;99637.06;3363461;29;20041;-71
2021/08/11 01:40:10;;;;;;;10.25;8.02;;;;;;;24.87;63.94;99637.00;3359032;29;20175;-70
2021/08/11 01:41:57;;;;;;;10.95;8.50;;;;;;;24.94;64.29;99637.47;3372775;29;20044;-71
2021/08/11 01:43:39;;;;;;;10.30;7.40;;;;;;;25.03;64.58;99633.78;3375260;29;20141;-71
2021/08/11 01:45:26;;;;;;;8.35;7.47;;;;;;;25.09;64.42;99629.06;3362073;29;20060;-74
2021/08/11 01:47:14;;;;;;;11.85;7.80;;;;;;;25.15;64.10;99627.13;3374368;29;20129;-72
2021/08/11 01:48:56;;;;;;;8.90;7.07;;;;;;;25.17;63.79;99636.66;3361237;29;20045;-71
2021/08/11 01:50:42;;;;;;;10.05;7.10;;;;;;;25.15;63.13;99641.56;3361676;29;20037;-70
2021/08/11 01:52:27;;;;;;;11.27;7.85;;;;;;;25.17;63.23;99638.56;3374089;29;20064;-71
2021/08/11 01:54:09;;;;;;;10.80;7.95;;;;;;;25.14;63.39;99637.19;3361483;29;20048;-71
2021/08/11 01:55:53;;;;;;;9.50;7.97;;;;;;;25.20;63.25;99632.53;3372185;29;20121;-71
2021/08/11 01:57:34;;;;;;;10.13;7.38;;;;;;;25.23;63.29;99638.22;3361940;29;20539;-70
2021/08/11 01:59:16;;;;;;;11.50;7.38;;;;;;;25.26;62.94;99642.25;3371419;29;20040;-73
2021/08/11 02:01:04;;;;;;;10.30;7.18;;;;;;;25.27;63.53;99634.88;3374637;29;20131;-70
2021/08/11 02:02:46;;;;;;;13.02;7.35;;;;;;;25.27;63.08;99640.34;3375825;29;20044;-72
2021/08/11 02:04:35;;;;;;;13.18;7.50;;;;;;;25.24;62.20;99645.28;3375908;29;20051;-72
2021/08/11 02:06:16;;;;;;;12.02;7.40;;;;;;;25.23;62.55;99651.84;3377895;29;20401;-72
2021/08/11 02:08:03;;;;;;;8.77;6.57;;;;;;;25.24;63.24;99649.94;3364458;29;20049;-74
2021/08/11 02:09:44;;;;;;;9.43;6.95;;;;;;;25.19;62.96;99642.63;3375789;29;20516;-70
2021/08/11 02:11:25;;;;;;;7.80;6.97;;;;;;;25.25;63.13;99648.84;3378267;29;20044;-72
2021/08/11 02:13:07;;;;;;;9.88;7.47;;;;;;;25.26;63.00;99647.72;3364296;29;20105;-69
2021/08/11 02:14:48;;;;;;;13.93;7.57;;;;;;;25.27;63.06;99651.25;3372398;29;20052;-70
2021/08/11 02:16:30;;;;;;;10.48;8.02;;;;;;;25.26;62.97;99649.66;3374765;29;20055;-71
2021/08/11 02:18:11;;;;;;;13.23;8.83;;;;;;;25.24;62.44;99653.47;3377825;29;20045;-71
2021/08/11 02:19:52;;;;;;;11.57;7.93;;;;;;;25.24;62.78;99658.09;3362704;29;20049;-73
2021/08/11 02:21:34;;;;;;;11.63;7.70;;;;;;;25.24;62.99;99658.91;3362081;29;20587;-71
2021/08/11 02:23:14;;;;;;;14.77;8.20;;;;;;;25.22;62.56;99663.88;3364350;29;20053;-72
2021/08/11 02:24:55;;;;;;;10.03;6.40;;;;;;;25.21;62.68;99664.97;3374301;29;20495;-72
2021/08/11 02:26:39;;;;;;;13.10;8.40;;;;;;;25.21;63.15;99658.69;3351427;29;20561;-72
2021/08/11 02:28:33;;;;;;;8.70;7.78;;;;;;;25.22;63.06;99661.16;3362013;29;20070;-71
2021/08/11 02:30:15;;;;;;;13.88;9.40;;;;;;;25.21;62.88;99664.16;3350314;29;20049;-71
2021/08/11 02:32:02;;;;;;;12.82;8.32;;;;;;;25.20;63.38;99666.06;3342710;29;20041;-71
2021/08/11 02:33:50;;;;;;;12.77;7.53;;;;;;;25.21;62.70;99675.06;3360425;29;20239;-71
2021/08/11 02:35:41;;;;;;;12.75;7.95;;;;;;;25.21;62.56;99670.41;3362192;29;20041;-73
2021/08/11 02:37:26;;;;;;;10.60;8.20;;;;;;;25.19;63.19;99675.34;3375454;29;20603;-71
2021/08/11 02:39:10;;;;;;;16.08;7.93;;;;;;;25.18;63.34;99679.19;3351008;29;20309;-70
2021/08/11 02:41:38;;;;;;;14.02;9.07;;;;;;;25.20;63.57;99682.44;3373070;29;20052;-71
2021/08/11 02:43:25;;;;;;;12.10;7.70;;;;;;;25.13;63.23;99689.31;3369346;29;20053;-71
2021/08/11 02:45:08;;;;;;;10.25;7.35;;;;;;;25.10;63.30;99693.44;3374309;29;20045;-70
2021/08/11 02:46:49;;;;;;;12.90;7.43;;;;;;;25.09;63.67;99691.81;3361618;29;20057;-71
2021/08/11 02:48:31;;;;;;;;;;;;;;;25.13;63.47;99701.03;3372208;29;20112;-69
2021/08/11 02:50:13;;;;;;;12.23;10.90;;;;;;;25.07;63.44;99699.50;3360640;29;20033;-71
2021/08/11 02:52:00;;;;;;;13.43;9.35;;;;;;;25.05;63.63;99698.97;3361244;29;20116;-71
2021/08/11 02:53:41;;;;;;;10.52;8.80;;;;;;;25.01;63.21;99704.19;3371640;29;20036;-72
2021/08/11 02:55:22;;;;;;;11.35;7.93;;;;;;;24.99;63.87;99706.41;3363691;29;20140;-72
2021/08/11 02:57:05;;;;;;;15.20;7.82;;;;;;;24.99;63.46;99711.03;3371845;29;20056;-73
2021/08/11 02:58:46;;;;;;;;;;;;;;;25.02;63.14;99715.91;3374363;29;20092;-72
2021/08/11 03:00:28;;;;;;;13.07;8.13;;;;;;;24.92;63.80;99705.13;3363782;29;19928;-70
2021/08/11 03:02:09;;;;;;;11.30;7.47;;;;;;;24.91;63.29;99704.31;3373883;29;20044;-72
2021/08/11 03:03:50;;;;;;;11.90;6.95;;;;;;;24.94;63.84;99700.19;3374118;29;20303;-72
2021/08/11 03:05:32;;;;;;;8.70;6.93;;;;;;;24.92;63.76;99695.00;3374026;29;20041;-70
2021/08/11 03:07:13;;;;;;;8.13;7.28;;;;;;;24.93;64.02;99695.81;3377276;29;20141;-70
2021/08/11 03:08:55;;;;;;;11.67;8.00;;;;;;;24.90;64.01;99696.41;3376392;29;20465;-73
2021/08/11 03:10:39;;;;;;;18.48;9.50;;;;;;;24.91;64.05;99703.47;3351975;29;20106;-71
2021/08/11 03:12:21;;;;;;;15.75;8.95;;;;;;;24.90;63.84;99713.56;3372646;29;20052;-71
2021/08/11 03:14:06;;;;;;;17.92;9.32;;;;;;;24.93;64.12;99712.19;3376542;29;20043;-71
2021/08/11 03:15:48;;;;;;;16.50;9.90;;;;;;;24.91;63.75;99719.84;3374519;29;20052;-71
2021/08/11 03:17:29;;;;;;;15.43;9.38;;;;;;;24.85;63.84;99724.53;3374198;29;20040;-71
2021/08/11 03:19:12;;;;;;;14.18;8.82;;;;;;;24.79;63.92;99737.41;3360999;29;20505;-71
2021/08/11 03:20:53;;;;;;;15.88;7.80;;;;;;;24.77;64.14;99736.88;3382795;29;20115;-73
2021/08/11 03:22:34;;;;;;;14.00;8.53;;;;;;;24.78;64.06;99737.69;3376572;29;20044;-70
2021/08/11 03:24:17;;;;;;;10.17;7.67;;;;;;;24.79;64.33;99747.50;3373638;29;20445;-71
2021/08/11 03:25:59;;;;;;;9.90;8.40;;;;;;;24.76;64.35;99746.16;3374198;29;20127;-71
2021/08/11 03:27:41;;;;;;;11.85;9.07;;;;;;;24.72;64.42;99738.84;3375807;29;20067;-72
2021/08/11 03:29:24;;;;;;;13.25;8.85;;;;;;;24.67;64.36;99736.16;3361026;29;20128;-73
2021/08/11 03:31:05;;;;;;;13.03;9.10;;;;;;;24.70;64.81;99746.50;3371907;29;20045;-71
2021/08/11 03:33:16;;;;;;;12.25;8.68;;;;;;;24.72;64.80;99739.66;3356269;29;20045;-70
2021/08/11 03:35:14;;;;;;;17.65;9.43;;;;;;;24.70;64.90;99741.84;3377379;29;20072;-72
2021/08/11 03:37:00;;;;;;;15.15;8.77;;;;;;;24.69;65.00;99753.06;3375885;29;20071;-71
2021/08/11 03:38:47;;;;;;;14.32;8.68;;;;;;;24.66;64.84;99748.19;3376052;29;20147;-71
2021/08/11 03:40:34;;;;;;;11.05;8.10;;;;;;;24.64;64.96;99748.44;3375360;29;20518;-74
2021/08/11 03:42:15;;;;;;;19.73;8.45;;;;;;;24.69;65.02;99745.69;3374316;29;20072;-71
2021/08/11 03:43:56;;;;;;;15.10;7.83;;;;;;;24.73;64.92;99745.91;3376089;29;20060;-71
2021/08/11 03:45:42;;;;;;;9.32;7.88;;;;;;;24.76;64.87;99743.44;3374034;29;20424;-71
2021/08/11 03:47:24;;;;;;;10.68;8.55;;;;;;;24.78;64.72;99746.69;3373594;29;20059;-72
2021/08/11 03:49:05;;;;;;;12.20;7.07;;;;;;;24.79;64.67;99745.59;3372817;29;20044;-73
2021/08/11 03:50:46;;;;;;;15.20;8.50;;;;;;;24.83;64.46;99750.44;3373585;29;20448;-72
2021/08/11 03:52:27;;;;;;;11.27;8.27;;;;;;;24.81;64.56;99748.84;3375865;29;20051;-71
2021/08/11 03:54:08;;;;;;;12.93;8.77;;;;;;;24.82;64.93;99744.19;3376564;29;20048;-70
2021/08/11 03:55:49;;;;;;;11.43;8.60;;;;;;;24.84;64.86;99746.66;3375673;29;20040;-73
2021/08/11 03:57:29;;;;;;;8.27;7.30;;;;;;;24.86;64.79;99745.25;3372954;29;20072;-71
2021/08/11 03:59:10;;;;;;;17.40;8.90;;;;;;;24.89;65.22;99744.69;3373453;29;20049;-72
2021/08/11 04:00:52;;;;;;;;;;;;;;;24.95;64.56;99748.97;3362938;29;20037;-72
2021/08/11 04:02:32;;;;;;;14.80;7.57;;;;;;;24.94;65.31;99746.53;3363569;29;19926;-72
2021/08/11 04:04:13;;;;;;;10.33;6.97;;;;;;;24.97;64.88;99745.97;3363907;29;20436;-72
2021/08/11 04:05:54;;;;;;;23.57;8.67;;;;;;;25.01;64.85;99747.00;3364069;29;20530;-72
2021/08/11 04:07:36;;;;;;;12.35;9.85;;;;;;;24.96;64.79;99749.78;3363527;29;20048;-70
2021/08/11 04:09:16;;;;;;;13.30;9.90;;;;;;;24.91;65.21;99760.72;3363642;29;20076;-70
2021/08/11 04:10:57;;;;;;;11.33;8.80;;;;;;;24.88;64.91;99751.22;3371355;29;20040;-71
2021/08/11 04:12:38;;;;;;;12.03;9.07;;;;;;;24.87;65.03;99752.31;3376273;29;20535;-71
2021/08/11 04:14:18;;;;;;;21.73;11.02;;;;;;;24.87;66.36;99752.31;3376815;29;20054;-72
2021/08/11 04:15:59;;;;;;;20.63;11.77;;;;;;;24.90;68.03;99759.94;3377112;29;20048;-74
2021/08/11 04:17:39;;;;;;;19.33;11.57;;;;;;;24.96;68.77;99760.69;3376813;29;20048;-73
2021/08/11 04:19:20;;;;;;;20.67;13.57;;;;;;;25.02;69.36;99759.53;3376726;29;20055;-72
2021/08/11 04:21:09;;;;;;;19.27;12.10;;;;;;;25.08;69.93;99763.84;3376534;29;20427;-75
2021/08/11 04:22:52;;;;;;;15.32;11.30;;;;;;;25.14;70.18;99768.13;3375137;29;20047;-73
2021/08/11 04:24:33;;;;;;;11.93;10.60;;;;;;;25.19;70.27;99765.38;3376378;29;20048;-75
2021/08/11 04:26:14;;;;;;;10.43;9.43;;;;;;;25.20;69.85;99767.00;3376830;29;20051;-73
2021/08/11 04:27:54;;;;;;;13.87;10.40;;;;;;;25.26;69.94;99767.75;3376477;29;20563;-73
2021/08/11 04:29:35;;;;;;;12.50;9.90;;;;;;;25.24;69.28;99759.84;3376652;29;20045;-75
2021/08/11 04:31:16;;;;;;;13.57;9.97;;;;;;;25.27;69.71;99766.66;3376484;29;20052;-72
2021/08/11 04:32:57;;;;;;;13.50;10.53;;;;;;;25.28;69.59;99773.75;3376324;29;20040;-71
2021/08/11 04:34:37;;;;;;;13.67;9.47;;;;;;;25.30;69.85;99773.44;3376286;29;20502;-73
2021/08/11 04:36:18;;;;;;;12.03;8.43;;;;;;;25.26;68.23;99772.41;3374412;29;20040;-73
2021/08/11 04:37:58;;;;;;;13.20;9.07;;;;;;;25.16;67.07;99773.31;3376614;29;20078;-72
2021/08/11 04:39:39;;;;;;;13.47;7.50;;;;;;;25.02;66.13;99774.00;3376830;29;20048;-73
2021/08/11 04:41:20;;;;;;;11.50;8.10;;;;;;;24.91;66.20;99779.81;3376716;29;20052;-73
2021/08/11 04:43:00;;;;;;;13.20;8.30;;;;;;;24.83;65.85;99780.44;3375705;29;20045;-73
2021/08/11 04:44:41;;;;;;;11.97;8.80;;;;;;;24.75;65.80;99782.69;3376254;29;20082;-72
2021/08/11 04:46:22;;;;;;;12.10;8.73;;;;;;;24.69;66.09;99783.84;3376106;29;20135;-73
2021/08/11 04:48:02;;;;;;;16.83;10.33;;;;;;;24.61;66.06;99781.72;3376344;29;20041;-73
2021/08/11 04:49:43;;;;;;;12.93;8.70;;;;;;;24.58;66.31;99780.38;3376317;29;20059;-73
2021/08/11 04:51:23;;;;;;;16.97;8.70;;;;;;;24.55;66.21;99780.13;3376608;29;20242;-73
2021/08/11 04:53:04;;;;;;;17.27;8.93;;;;;;;24.50;66.46;99777.44;3376619;29;20127;-73
2021/08/11 04:54:45;;;;;;;12.93;9.13;;;;;;;24.45;66.04;99778.31;3375548;29;20079;-74
2021/08/11 04:56:25;;;;;;;11.97;8.57;;;;;;;24.42;66.33;99775.31;3375681;29;20071;-73
2021/08/11 04:58:06;;;;;;;10.37;8.60;;;;;;;24.39;66.13;99776.69;3370965;29;20055;-72
2021/08/11 04:59:48;;;;;;;11.13;9.30;;;;;;;24.34;66.16;99777.56;3375111;29;20049;-73
2021/08/11 05:01:31;;;;;;;11.68;9.57;;;;;;;24.32;66.47;99773.50;3375486;29;20291;-73
2021/08/11 05:03:12;;;;;;;14.70;12.03;;;;;;;24.28;66.69;99773.22;3376328;29;20044;-73
2021/08/11 05:04:52;;;;;;;17.23;10.37;;;;;;;24.26;67.15;99771.88;3376026;29;20040;-72
2021/08/11 05:06:33;;;;;;;13.87;9.80;;;;;;;24.21;67.52;99767.28;3377258;29;20083;-73
2021/08/11 05:08:14;;;;;;;12.23;9.80;;;;;;;24.17;67.66;99760.78;3375062;29;20056;-72
2021/08/11 05:09:54;;;;;;;20.03;10.77;;;;;;;24.17;67.50;99760.78;3376459;29;20056;-73
2021/08/11 05:11:35;;;;;;;18.37;11.23;;;;;;;24.13;67.20;99754.25;3376331;29;20088;-73
2021/08/11 05:13:15;;;;;;;18.47;10.57;;;;;;;24.17;67.10;99766.22;3375543;29;20045;-73
2021/08/11 05:14:57;;;;;;;12.20;8.90;;;;;;;24.15;67.09;99760.25;3377465;29;20547;-73
2021/08/11 05:16:38;;;;;;;14.32;9.68;;;;;;;24.16;67.37;99754.53;3378861;29;20055;-75
2021/08/11 05:18:18;;;;;;;15.23;10.33;;;;;;;24.14;67.09;99754.00;3379034;29;20040;-73
2021/08/11 05:19:59;;;;;;;16.57;9.90;;;;;;;24.14;67.34;99747.75;3363642;29;20052;-72
2021/08/11 05:21:40;;;;;;;10.23;8.90;;;;;;;24.14;66.99;99756.72;3375713;29;20055;-72
2021/08/11 05:23:20;;;;;;;14.10;9.43;;;;;;;24.13;66.60;99755.06;3378631;29;20420;-72
2021/08/11 05:25:01;;;;;;;16.83;10.87;;;;;;;24.11;66.83;99745.56;3378562;29;20485;-73
2021/08/11 05:26:45;;;;;;;18.37;11.87;;;;;;;24.12;67.51;99744.47;3378199;29;20083;-72
2021/08/11 05:28:25;;;;;;;18.38;10.38;;;;;;;24.09;68.00;99753.22;3378323;29;20045;-74
2021/08/11 05:30:09;;;;;;;19.17;12.67;;;;;;;24.04;68.08;99751.34;3378448;29;20629;-75
2021/08/11 05:31:50;;;;;;;18.13;11.40;;;;;;;24.04;68.30;99742.38;3378524;29;20044;-74
2021/08/11 05:33:31;;;;;;;15.77;11.67;;;;;;;24.06;68.41;99745.59;3378574;29;20135;-77
2021/08/11 05:35:11;;;;;;;21.73;12.60;;;;;;;24.08;68.55;99743.41;3378312;29;20083;-75
2021/08/11 05:36:52;;;;;;;17.20;11.67;;;;;;;24.09;68.40;99742.34;3378151;29;20053;-75
2021/08/11 05:38:34;;;;;;;17.57;11.00;;;;;;;24.09;67.93;99742.34;3378246;29;20112;-73
2021/08/11 05:40:18;;;;;;;18.85;12.00;;;;;;;24.12;67.63;99741.75;3363518;29;20037;-73
2021/08/11 05:41:59;;;;;;;16.20;11.38;;;;;;;24.15;67.60;99730.28;3368619;29;20047;-75
2021/08/11 05:43:39;;;;;;;17.00;11.83;;;;;;;24.14;67.54;99732.22;3377839;29;20502;-73
2021/08/11 05:45:20;;;;;;;16.33;10.57;;;;;;;24.17;67.28;99733.56;3378766;29;20040;-74
2021/08/11 05:47:03;;;;;;;15.23;10.00;;;;;;;24.19;67.17;99731.38;3377763;29;20044;-73
2021/08/11 05:48:44;;;;;;;15.35;10.10;;;;;;;24.20;66.74;99730.25;3378188;29;20045;-74
2021/08/11 05:50:24;;;;;;;16.30;10.53;;;;;;;24.22;66.69;99724.53;3378771;29;20557;-74
2021/08/11 05:52:05;;;;;;;16.57;10.50;;;;;;;24.26;66.77;99726.38;3378227;29;20041;-76
2021/08/11 05:53:46;;;;;;;12.87;9.67;;;;;;;24.26;66.49;99720.94;3378983;29;20051;-76
2021/08/11 05:55:27;;;;;;;15.10;10.80;;;;;;;24.25;66.51;99719.31;3378696;29;20052;-75
2021/08/11 05:57:08;;;;;;;15.63;10.77;;;;;;;24.26;66.74;99720.94;3377823;29;20040;-75
2021/08/11 05:58:49;;;;;;;16.27;11.23;;;;;;;24.29;66.67;99722.28;3378182;29;20063;-75
2021/08/11 06:00:29;;;;;;;17.30;10.57;;;;;;;24.30;66.63;99711.09;3377481;29;20055;-76
2021/08/11 06:02:10;;;;;;;13.80;10.43;;;;;;;24.33;66.33;99715.19;3374285;29;20060;-76
2021/08/11 06:03:58;;;;;;;19.10;10.77;;;;;;;24.33;66.27;99718.72;3364414;29;20617;-76
2021/08/11 06:05:39;;;;;;;;;;;;;;;24.42;66.33;99723.53;3377085;29;20041;-74
2021/08/11 06:07:20;;;;;;;15.65;9.70;;;;;;;24.38;66.21;99706.97;3378681;29;19923;-74
2021/08/11 06:09:01;;;;;;;18.17;9.35;;;;;;;24.41;65.86;99711.84;3378391;29;20044;-75
2021/08/11 06:10:42;;;;;;;12.77;7.93;;;;;;;24.44;65.37;99713.16;3378184;29;20550;-76
2021/08/11 06:12:23;;;;;;;16.80;9.23;;;;;;;24.48;65.58;99711.53;3378338;29;20535;-75
2021/08/11 06:14:04;;;;;;;12.37;8.30;;;;;;;24.49;65.25;99711.25;3378292;29;20057;-75
2021/08/11 06:15:45;;;;;;;13.37;9.10;;;;;;;24.53;65.20;99715.03;3377239;29;20040;-75
2021/08/11 06:17:26;;;;;;;19.98;9.75;;;;;;;24.55;65.63;99717.44;3378227;29;20040;-75
2021/08/11 06:19:08;;;;;;;11.37;8.73;;;;;;;24.56;64.98;99705.47;3376982;29;20045;-74
2021/08/11 06:20:52;;;;;;;14.98;9.02;;;;;;;24.62;65.41;99719.84;3377693;29;20412;-75
2021/08/11 06:22:32;;;;;;;12.35;9.23;;;;;;;24.63;64.68;99711.41;3364407;29;20045;-75
2021/08/11 06:24:13;;;;;;;16.23;8.23;;;;;;;24.63;64.71;99700.50;3375233;29;20401;-74
2021/08/11 06:25:54;;;;;;;9.23;7.83;;;;;;;24.71;64.65;99710.78;3362843;29;20484;-75
2021/08/11 06:27:35;;;;;;;13.97;7.80;;;;;;;24.73;64.18;99713.19;3375156;29;20079;-76
2021/08/11 06:29:16;;;;;;;12.00;8.55;;;;;;;24.70;64.22;99702.88;3378216;29;20415;-75
2021/08/11 06:30:57;;;;;;;14.80;8.30;;;;;;;24.75;64.28;99711.81;3375930;29;20041;-75
2021/08/11 06:32:38;;;;;;;13.67;7.83;;;;;;;24.73;64.01;99697.69;3377583;29;20076;-76
2021/08/11 06:34:19;;;;;;;12.37;8.00;;;;;;;24.75;64.03;99705.56;3377826;29;20037;-74
2021/08/11 06:36:01;;;;;;;14.75;7.88;;;;;;;24.75;64.08;99711.81;3377437;29;20112;-75
2021/08/11 06:37:49;;;;;;;13.73;8.13;;;;;;;24.77;63.73;99708.81;3377941;29;20539;-75
2021/08/11 06:39:30;;;;;;;15.40;6.97;;;;;;;24.75;63.57;99700.09;3376384;29;20052;-75
2021/08/11 06:41:15;;;;;;;12.77;8.03;;;;;;;24.76;63.44;99708.00;3361225;29;20049;-76
2021/08/11 06:43:04;;;;;;;14.68;7.78;;;;;;;24.74;63.13;99704.75;3368941;29;20045;-73
2021/08/11 06:44:45;;;;;;;19.75;8.90;;;;;;;24.74;63.41;99712.13;3366456;29;20060;-75
2021/08/11 06:46:26;;;;;;;18.70;8.50;;;;;;;24.71;63.20;99705.31;3375255;29;20048;-74
2021/08/11 06:48:06;;;;;;;24.13;9.50;;;;;;;24.74;62.88;99709.38;3378535;29;20100;-75
2021/08/11 06:49:47;;;;;;;21.40;9.43;;;;;;;24.72;63.20;99709.66;3366078;29;20148;-75
2021/08/11 06:51:28;;;;;;;23.40;9.40;;;;;;;24.71;62.90;99705.31;3381005;29;20036;-76
2021/08/11 06:53:08;;;;;;;32.97;10.53;;;;;;;24.70;62.97;99709.13;3380750;29;20044;-75
2021/08/11 06:54:49;;;;;;;38.80;10.83;;;;;;;24.72;63.55;99711.59;3380912;29;20049;-75
2021/08/11 06:56:30;;;;;;;22.83;9.60;;;;;;;24.74;63.16;99712.91;3380464;29;20045;-77
2021/08/11 06:58:10;;;;;;;28.63;9.43;;;;;;;24.76;63.52;99710.72;3383166;29;20063;-74
2021/08/11 06:59:51;;;;;;;23.17;8.83;;;;;;;24.74;62.95;99714.84;3382606;29;20051;-76
2021/08/11 07:01:32;;;;;;;27.50;8.67;;;;;;;24.77;62.72;99716.97;3380955;29;20036;-74
2021/08/11 07:03:13;;;;;;;23.10;8.60;;;;;;;24.75;62.63;99713.72;3378517;29;20521;-75
2021/08/11 07:04:54;;;;;;;24.03;10.37;;;;;;;24.70;62.89;99713.78;3374844;29;20484;-76
2021/08/11 07:06:34;;;;;;;18.00;8.48;;;;;;;24.66;63.31;99716.28;3387237;29;20059;-77
2021/08/11 07:08:16;;;;;;;16.00;7.27;;;;;;;24.62;63.52;99712.50;3388822;29;20040;-76
2021/08/11 07:09:59;;;;;;;29.42;10.27;;;;;;;24.63;63.97;99714.13;3378551;29;20049;-75
2021/08/11 07:11:39;;;;;;;19.43;9.30;;;;;;;24.64;63.83;99713.03;3376171;29;20047;-75
2021/08/11 07:13:21;;;;;;;19.27;11.10;;;;;;;24.65;64.31;99713.81;3376583;29;20296;-75
2021/08/11 07:15:04;;;;;;;29.67;11.30;;;;;;;24.64;64.22;99715.75;3376399;29;20048;-74
2021/08/11 07:16:46;;;;;;;17.33;9.77;;;;;;;24.64;64.12;99714.94;3376428;29;20036;-73
2021/08/11 07:18:26;;;;;;;16.57;9.70;;;;;;;24.65;64.19;99716.56;3375649;29;20035;-72
2021/08/11 07:20:10;;;;;;;18.37;9.60;;;;;;;24.62;63.98;99711.69;3376246;29;20041;-74
2021/08/11 07:21:52;;;;;;;22.02;9.90;;;;;;;24.59;64.33;99719.31;3376532;29;20201;-75
2021/08/11 07:23:32;;;;;;;18.70;9.52;;;;;;;24.57;64.09;99718.78;3362244;29;20567;-73
2021/08/11 07:25:16;;;;;;;18.40;9.38;;;;;;;24.54;64.44;99707.66;3373463;29;20032;-76
2021/08/11 07:26:59;;;;;;;26.23;10.95;;;;;;;24.53;64.25;99708.78;3375843;29;20111;-74
2021/08/11 07:28:39;;;;;;;20.92;9.40;;;;;;;24.55;65.01;99707.38;3380778;29;20040;-75
2021/08/11 07:30:22;;;;;;;16.70;9.17;;;;;;;24.55;64.69;99707.38;3376866;29;20044;-75
2021/08/11 07:32:04;;;;;;;13.40;8.00;;;;;;;24.50;64.43;99701.16;3375214;29;20104;-74
2021/08/11 07:33:45;;;;;;;15.52;8.27;;;;;;;24.55;64.47;99710.13;3375051;29;20037;-75
2021/08/11 07:35:27;;;;;;;13.67;8.10;;;;;;;24.55;64.10;99712.84;3375544;29;20055;-75
2021/08/11 07:37:07;;;;;;;;;;;;;;;24.61;63.94;99715.50;3374058;29;20472;-76
2021/08/11 07:38:50;;;;;;;14.40;8.25;;;;;;;24.52;63.79;99707.13;3370227;29;19934;-77
2021/08/11 07:40:32;;;;;;;13.65;8.50;;;;;;;24.48;64.20;99715.06;3374459;29;20505;-74
2021/08/11 07:42:14;;;;;;;11.95;7.20;;;;;;;24.47;64.48;99715.34;3375659;29;20492;-75
2021/08/11 07:43:54;;;;;;;9.90;7.03;;;;;;;24.47;64.24;99707.19;3375908;29;20051;-75
2021/08/11 07:45:36;;;;;;;9.30;7.57;;;;;;;24.48;64.38;99717.00;3375924;29;20040;-75
2021/08/11 07:47:17;;;;;;;17.05;7.80;;;;;;;24.43;64.12;99722.47;3365514;29;20476;-74
2021/08/11 07:49:00;;;;;;;11.57;6.80;;;;;;;24.39;63.72;99722.19;3383222;29;20049;-73
2021/08/11 07:50:40;;;;;;;12.32;7.47;;;;;;;24.30;64.19;99719.28;3375208;29;20040;-74
2021/08/11 07:52:21;;;;;;;18.63;8.32;;;;;;;24.27;64.39;99713.59;3370976;29;20045;-72
2021/08/11 07:54:02;;;;;;;12.87;7.73;;;;;;;24.19;64.56;99709.56;3370697;29;20052;-74
2021/08/11 07:55:43;;;;;;;11.00;7.70;;;;;;;24.16;64.74;99712.84;3370792;29;20033;-73
2021/08/11 07:57:24;;;;;;;14.97;8.33;;;;;;;24.13;64.83;99716.94;3370200;29;20301;-73
2021/08/11 07:59:04;;;;;;;12.70;8.13;;;;;;;24.12;64.96;99719.97;3369322;29;20041;-74